Station info - map view · info · telemetry · weather · raw · status · beacons · messages · bulletins · browse · moving · my account
Callsign, ship name or locator: Clear       
It is possible to search using wildcards (*?) after a prefix. Example: OH*
APRS station N929EH - show graphs
Map loading...
Comment: KE7YVP
Mic-E message: En route
Last status: MT8000FA v1.0
Location: 45°32.22' N 122°57.05' W - locator CN85MM58VV - show map - static map
2.1 miles Northeast bearing 63° from Hillsboro, Washington County, Oregon, United States [?]
3.7 miles West bearing 256° from Rockcreek, Washington County, Oregon, United States
13.3 miles West bearing 274° from Portland, Multnomah County, Oregon, United States
15.6 miles Southwest bearing 243° from Vancouver, Clark County, Washington, United States
Last position: 2018-10-14 20:18:19 EDT (8d 30m ago)
2018-10-14 17:18:19 PDT local time at Hillsboro, United States [?]
Altitude: 223 ft
Course: 320°
Speed: 8 MPH
Last path: N929EH>TU3RRR via WIDE1-1,WIDE2-1,qAR,NPLNS (good)
Positions stored: 15502
Stations near current position of N929EH - show more
callsign distance last heard - EDT      callsign distance last heard - EDT
K7ALF-i50.1 yards 148°2018-09-30 17:28:38 KF7LJH-10106.6 yards 112°2018-09-30 15:01:29
KU7PDX115.9 yards 122°2018-09-30 17:47:48 N962MC197.9 yards 239°2018-10-20 21:34:38
K7CPU-10.6 miles 301°2018-10-22 20:44:57 N7VIC-90.8 miles 161°2018-10-22 20:42:20
W7EES-100.8 miles 252°2018-10-22 20:24:18 KI7BR0.8 miles 58°2018-10-20 12:28:33
K7TRP-100.9 miles 204°2018-10-22 08:53:17 WC7EOC-100.9 miles 204°2018-10-22 20:23:45
K7TRP-110.9 miles 204°2018-10-22 09:23:22 W7EES-90.9 miles 247°2018-10-20 15:41:55
N713JL1.1 miles 134°2018-10-21 20:16:36 N7BTW1.1 miles 282°2018-10-22 20:45:06
N7BTW-151.2 miles 283°2018-10-22 20:45:24 EW99171.2 miles 129°2018-10-22 20:47:46
N7TSZ1.3 miles 249°2018-10-01 22:09:02 N7TSZ-71.3 miles 248°2018-10-22 20:47:23
N7TSZ-101.3 miles 250°2018-09-30 21:01:24 AA0PB1.3 miles 248°2018-10-22 20:36:40
Stations which heard N929EH directly on radio –
callsign pkts first heard - EDT last heard longest (tx => rx) longest at - EDT
HEBOWX 9 2018-10-14 18:43:30 2018-10-14 20:08:31 CN94EL > CN85CF 116.4 miles 297° 2018-10-14 19:44:39
WOLF 6 2018-10-14 19:08:21 2018-10-14 19:47:38 CN94CN > CN83VO 68.1 miles 199° 2018-10-14 19:47:38
W7GC-4 8 2018-10-14 18:58:24 2018-10-14 19:53:36 CN94EL > CN85CF 116.4 miles 297° 2018-10-14 19:44:39
IDIOTV 16 2018-10-14 18:28:47 2018-10-14 20:07:34 CN94CI > CN85HP 119.1 miles 319° 2018-10-14 19:11:21
REDMTN 1 2018-10-14 19:46:39 2018-10-14 19:46:39 CN94DM > CN95CW 97.7 miles 357° 2018-10-14 19:46:39
W7IG 1 2018-10-14 20:03:32 2018-10-14 20:03:32 CN85RD > CN85HC 40.5 miles 267° 2018-10-14 20:03:32
W7SRA 1 2018-10-14 19:48:38 2018-10-14 19:48:38 CN94BN > CN84KU 64.8 miles 287° 2018-10-14 19:48:38
N7BDW-10 1 2018-10-14 18:38:31 2018-10-14 18:38:31 CN85NK > CN85PR 19.2 miles 24° 2018-10-14 18:38:31
KD1IT-10 1 2018-10-14 18:35:09 2018-10-14 18:35:09 CN85MN > CN85NK 7.2 miles 160° 2018-10-14 18:35:09
K7JCN-9 11 2018-10-14 18:43:36 2018-10-14 20:11:44 CN85NK > CN85QC 27.9 miles 152° 2018-10-14 20:11:44
BALDPK 4 2018-10-14 18:29:01 2018-10-14 20:13:03 CN85SA > CN85LJ 40.0 miles 312° 2018-10-14 20:00:33
NA7Q-9 8 2018-10-14 18:37:31 2018-10-14 20:11:29 CN85QD > CN85QL 23.2 miles 355° 2018-10-14 18:47:28
BEAVRT 1 2018-10-14 18:50:27 2018-10-14 18:50:27 CN85SB > CN85OK 31.8 miles 329° 2018-10-14 18:50:27
NICOLI 2 2018-10-14 19:06:23 2018-10-14 19:20:30 CN94AM > CN86GC 130.1 miles 327° 2018-10-14 19:06:23
W7DG-5 1 2018-10-14 18:51:26 2018-10-14 18:51:26 CN85SA > CN86ME 84.5 miles 344° 2018-10-14 18:51:26
KK7DS-1 1 2018-10-14 18:56:25 2018-10-14 18:56:25 CN84UU > CN85RL 44.4 miles 346° 2018-10-14 18:56:25
K7RMO-1 23 2018-10-14 18:35:19 2018-10-14 20:12:32 CN84VU > CN85MI 46.8 miles 316° 2018-10-14 19:56:37
W7EES-10 4 2018-10-14 18:28:47 2018-10-14 20:17:46 CN85MM > CN85MM 2.4 miles 26° 2018-10-14 20:13:54
MKSRDG 8 2018-10-14 18:42:30 2018-10-14 20:10:30 CN85NK > CN84PK 69.4 miles 174° 2018-10-14 20:10:30
NPLNS 27 2018-10-14 18:28:32 2018-10-14 20:18:19 CN94BK > CN85MP 99.8 miles 327° 2018-10-14 19:09:20

Only position packets which were originated by the station are shown here. The range statistics show some extra long hops, because some digipeaters do not correctly add themselves to the digipeater path. Please check the raw packets.
About this site
This page shows real-time information collected from the Automatic Position Reporting System Internet network (APRS-IS). APRS is used by amateur (ham) radio operators to transmit real-time position information, weather data, telemetry and messages over the radio. A vehicle equipped with a GPS receiver, a VHF transmitter or HF transceiver and a small computer device called a tracker transmits it's location, speed and course in a small data packet, which is then received by a nearby iGate receiving site which forwards the packet on the Internet. Systems connected to the Internet can send information on the APRS-IS without a radio transmitter, or collect and display information transmitted anywhere in the world.
FAQ · Blog · Discussion group · Linking to aprs.fi · AIS sites · Service status · Database statistics · Advertising on aprs.fi · Technical details · API · Change log · Planned changes · Credits and thanks · Terms Of Service · iPhone/iPad APRS